Time;durP1;ratioP1;P1;durP2;ratioP2;P2;SDS_P1;SDS_P2;PMS_P1;PMS_P2;Temp;Humidity;BMP_temperature;BMP_pressure;BME280_temperature;BME280_humidity;BME280_pressure;Samples;Min_cycle;Max_cycle;Signal;HPM_P1;HPM_P2
2022/11/27 00:01:18;;;;;;;0.60;0.45;;;;;;;5.40;100.00;101266.81;6193412;23;20039;-79
2022/11/27 00:03:44;;;;;;;2.25;1.20;;;;;;;5.35;100.00;101261.63;6256239;22;20016;-79
2022/11/27 00:06:14;;;;;;;0.65;0.65;;;;;;;5.33;100.00;101261.22;6275972;22;20011;-79
2022/11/27 00:08:41;;;;;;;0.55;0.55;;;;;;;5.34;100.00;101268.28;6275314;22;20012;-79
2022/11/27 00:11:08;;;;;;;0.80;0.80;;;;;;;5.33;100.00;101266.72;6275869;22;20028;-79
2022/11/27 00:13:34;;;;;;;0.75;0.75;;;;;;;5.33;100.00;101263.97;6275947;22;20346;-79
2022/11/27 00:16:00;;;;;;;0.17;0.17;;;;;;;5.31;100.00;101259.97;6248945;22;20017;-79
2022/11/27 00:18:25;;;;;;;1.08;0.90;;;;;;;5.30;100.00;101261.94;6248154;22;20031;-79
2022/11/27 00:20:50;;;;;;;0.95;0.95;;;;;;;5.22;100.00;101254.75;6275756;22;20014;-79
2022/11/27 00:23:16;;;;;;;2.28;0.80;;;;;;;5.14;100.00;101264.06;6275433;22;20506;-79
2022/11/27 00:25:49;;;;;;;0.10;0.10;;;;;;;5.13;100.00;101270.75;6275513;22;20011;-79
2022/11/27 00:28:14;;;;;;;0.80;0.20;;;;;;;5.09;100.00;101267.94;6248368;22;20015;-79
2022/11/27 00:30:40;;;;;;;0.35;0.35;;;;;;;5.06;100.00;101268.66;6274936;22;20016;-79
2022/11/27 00:33:06;;;;;;;0.50;0.50;;;;;;;5.08;100.00;101271.06;6247956;22;20031;-79
2022/11/27 00:35:31;;;;;;;0.70;0.70;;;;;;;5.01;100.00;101271.75;6275901;22;20049;-85
2022/11/27 00:37:57;;;;;;;0.63;0.63;;;;;;;5.02;100.00;101269.75;6248017;22;20345;-79
2022/11/27 00:40:22;;;;;;;0.20;0.20;;;;;;;4.97;100.00;101270.09;6222415;22;20008;-79
2022/11/27 00:42:48;;;;;;;0.40;0.40;;;;;;;4.91;100.00;101266.06;6274590;22;20018;-79
2022/11/27 00:45:13;;;;;;;2.28;1.45;;;;;;;4.87;100.00;101265.22;6275084;22;20004;-79
2022/11/27 00:47:39;;;;;;;0.93;0.93;;;;;;;4.79;100.00;101263.50;6275610;22;20045;-79
2022/11/27 00:50:05;;;;;;;1.15;1.10;;;;;;;4.80;100.00;101256.84;6274030;22;20008;-80
2022/11/27 00:52:30;;;;;;;0.35;0.35;;;;;;;4.83;100.00;101270.66;6275393;22;20577;-80
2022/11/27 00:54:56;;;;;;;0.93;0.90;;;;;;;4.85;100.00;101267.56;6276928;22;20065;-79
2022/11/27 00:57:21;;;;;;;0.57;0.57;;;;;;;4.87;100.00;101262.47;6279469;22;20069;-79
2022/11/27 00:59:47;;;;;;;0.90;0.90;;;;;;;4.85;100.00;101262.06;6278312;22;20432;-79
2022/11/27 01:02:12;;;;;;;0.15;0.15;;;;;;;4.83;100.00;101270.66;6279346;22;20087;-80
2022/11/27 01:04:38;;;;;;;0.43;0.43;;;;;;;4.83;100.00;101261.59;6278503;22;20039;-79
2022/11/27 01:07:03;;;;;;;0.20;0.20;;;;;;;4.74;100.00;101258.31;6278929;22;20095;-80
2022/11/27 01:09:29;;;;;;;0.10;0.10;;;;;;;4.72;100.00;101264.19;6277885;22;20008;-79
2022/11/27 01:11:54;;;;;;;0.10;0.10;;;;;;;4.72;100.00;101263.41;6275386;22;20008;-81
2022/11/27 01:14:20;;;;;;;1.02;0.98;;;;;;;4.77;100.00;101263.09;6274478;22;20418;-86
2022/11/27 01:16:45;;;;;;;0.00;0.00;;;;;;;4.76;100.00;101264.25;6274145;22;20492;-85
2022/11/27 01:19:12;;;;;;;0.05;0.05;;;;;;;4.73;100.00;101265.00;6247672;22;20004;-85
2022/11/27 01:21:37;;;;;;;0.60;0.60;;;;;;;4.72;100.00;101277.16;6275188;22;20541;-85
2022/11/27 01:24:04;;;;;;;0.52;0.52;;;;;;;4.72;100.00;101274.41;6247450;22;20090;-86
2022/11/27 01:26:30;;;;;;;0.57;0.57;;;;;;;4.69;100.00;101265.72;6246907;22;20087;-86
2022/11/27 01:28:56;;;;;;;1.98;1.85;;;;;;;4.61;100.00;101258.50;6247870;22;20430;-86
2022/11/27 01:31:25;;;;;;;0.00;0.00;;;;;;;4.70;100.00;101267.31;6275381;22;20011;-80
2022/11/27 01:33:53;;;;;;;1.40;1.13;;;;;;;4.67;100.00;101268.03;6274774;22;20004;-79
2022/11/27 01:36:18;;;;;;;0.65;0.65;;;;;;;4.66;100.00;101260.16;6248080;22;20082;-79
2022/11/27 01:38:44;;;;;;;0.43;0.43;;;;;;;4.67;100.00;101261.75;6247702;22;20046;-79
2022/11/27 01:41:20;;;;;;;0.20;0.20;;;;;;;4.73;100.00;101254.00;6247984;22;20098;-79
2022/11/27 01:43:54;;;;;;;0.20;0.20;;;;;;;4.67;100.00;101259.00;6247109;22;20014;-80
2022/11/27 01:46:39;;;;;;;0.20;0.20;;;;;;;4.67;100.00;101246.06;6274645;22;20011;-79
2022/11/27 01:49:07;;;;;;;0.43;0.43;;;;;;;4.65;100.00;101262.09;6274733;22;20069;-79
2022/11/27 01:51:35;;;;;;;0.45;0.45;;;;;;;4.63;100.00;101256.19;6273392;22;20007;-80
2022/11/27 01:54:00;;;;;;;0.13;0.13;;;;;;;4.62;100.00;101248.31;6222413;22;20004;-80
2022/11/27 01:56:26;;;;;;;6.88;1.95;;;;;;;4.58;100.00;101253.75;6247012;22;20008;-79
2022/11/27 01:58:52;;;;;;;0.10;0.10;;;;;;;4.62;100.00;101248.31;6274312;22;20431;-80
2022/11/27 02:04:00;;;;;;;0.43;0.30;;;;;;;4.62;100.00;101253.81;6262599;22;20024;-78
2022/11/27 02:06:26;;;;;;;0.47;0.47;;;;;;;4.63;100.00;101256.19;6247737;22;20016;-78
2022/11/27 02:08:52;;;;;;;0.43;0.43;;;;;;;4.60;100.00;101248.69;6247497;22;20011;-78
2022/11/27 02:11:35;;;;;;;0.38;0.38;;;;;;;4.62;100.00;101243.59;6274835;22;20031;-78
2022/11/27 02:14:30;;;;;;;0.10;0.10;;;;;;;4.57;100.00;101245.88;6247216;22;20015;-78
2022/11/27 02:16:56;;;;;;;0.22;0.22;;;;;;;4.55;100.00;101249.00;6203081;22;20047;-77
2022/11/27 02:19:33;;;;;;;3.58;2.53;;;;;;;4.59;100.00;101243.56;6274810;22;20019;-83
2022/11/27 02:22:04;;;;;;;0.40;0.40;;;;;;;4.51;100.00;101233.59;6274520;22;20012;-83
2022/11/27 02:25:09;;;;;;;0.68;0.65;;;;;;;4.43;100.00;101229.94;6274305;22;20043;-82
2022/11/27 02:28:01;;;;;;;0.65;0.60;;;;;;;4.50;100.00;101237.50;6273739;22;20437;-82
2022/11/27 02:30:31;;;;;;;0.20;0.20;;;;;;;4.51;100.00;101234.41;6247048;22;20004;-85
2022/11/27 02:32:58;;;;;;;0.25;0.25;;;;;;;4.48;100.00;101243.38;6245643;22;20345;-82
2022/11/27 02:35:33;;;;;;;3.75;1.63;;;;;;;4.45;100.00;101238.59;6221810;22;20004;-82
2022/11/27 02:38:05;;;;;;;0.20;0.20;;;;;;;4.44;100.00;101231.53;6274142;22;20356;-82
2022/11/27 02:40:30;;;;;;;0.10;0.10;;;;;;;4.44;100.00;101231.53;6246919;22;20018;-83
2022/11/27 02:42:57;;;;;;;0.47;0.47;;;;;;;4.42;100.00;101233.84;6273644;22;20079;-84
2022/11/27 02:45:41;;;;;;;0.68;0.68;;;;;;;4.34;100.00;101226.63;6247696;22;20042;-84
2022/11/27 02:48:08;;;;;;;0.30;0.30;;;;;;;4.32;100.00;101237.22;6222063;22;20034;-84
2022/11/27 02:50:35;;;;;;;0.32;0.32;;;;;;;4.26;100.00;101233.16;6247087;22;20393;-84
2022/11/27 02:53:04;;;;;;;0.98;0.98;;;;;;;4.26;100.00;101235.91;6246896;22;20039;-84
2022/11/27 02:55:32;;;;;;;0.20;0.20;;;;;;;4.32;100.00;101245.47;6247452;22;20027;-83
2022/11/27 02:57:59;;;;;;;0.73;0.73;;;;;;;4.27;100.00;101240.25;6247048;22;20273;-84
2022/11/27 03:00:24;;;;;;;0.13;0.13;;;;;;;4.22;100.00;101240.56;6247053;22;20349;-84
2022/11/27 03:02:59;;;;;;;1.38;1.27;;;;;;;4.25;100.00;101244.53;6273735;22;20086;-83
2022/11/27 03:05:28;;;;;;;0.10;0.10;;;;;;;4.20;100.00;101245.63;6247058;22;20078;-84
2022/11/27 03:08:23;;;;;;;0.30;0.30;;;;;;;4.14;100.00;101244.31;6247063;22;20079;-84
2022/11/27 03:11:00;;;;;;;0.00;0.00;;;;;;;4.12;100.00;101252.16;6269533;22;20476;-84
2022/11/27 03:13:26;;;;;;;0.20;0.20;;;;;;;4.08;100.00;101248.53;6246132;22;20061;-83
2022/11/27 03:15:57;;;;;;;0.60;0.60;;;;;;;4.03;100.00;101254.31;6274285;22;20027;-84
2022/11/27 03:18:41;;;;;;;1.45;1.35;;;;;;;4.01;100.00;101259.38;6273716;22;20008;-84
2022/11/27 03:21:24;;;;;;;0.32;0.28;;;;;;;3.92;100.00;101247.84;6221670;22;20007;-83
2022/11/27 03:23:49;;;;;;;0.65;0.38;;;;;;;3.93;100.00;101236.47;6274109;22;20024;-82
2022/11/27 03:26:15;;;;;;;0.88;0.55;;;;;;;3.86;100.00;101249.28;6274126;22;20076;-84
2022/11/27 03:28:42;;;;;;;0.10;0.10;;;;;;;3.81;100.00;101249.56;6246416;22;20043;-84
2022/11/27 03:31:07;;;;;;;1.42;1.38;;;;;;;3.70;100.00;101241.91;6246528;22;20457;-84
2022/11/27 03:33:33;;;;;;;0.47;0.47;;;;;;;3.73;100.00;101246.69;6246867;22;20043;-84
2022/11/27 03:35:58;;;;;;;0.73;0.68;;;;;;;3.68;100.00;101249.69;6273404;22;20329;-84
2022/11/27 03:38:24;;;;;;;0.10;0.10;;;;;;;3.70;100.00;101243.88;6274089;22;20327;-84
2022/11/27 03:41:01;;;;;;;0.35;0.35;;;;;;;3.64;100.00;101248.84;6273430;22;20004;-84
2022/11/27 03:43:28;;;;;;;1.15;1.05;;;;;;;3.74;100.00;101248.28;6246948;22;20079;-84
2022/11/27 03:45:59;;;;;;;2.15;1.25;;;;;;;3.71;100.00;101243.53;6245436;22;20011;-84
2022/11/27 03:48:39;;;;;;;0.70;0.70;;;;;;;3.65;100.00;101242.19;6245974;22;20074;-84
2022/11/27 03:51:19;;;;;;;2.22;2.03;;;;;;;3.58;100.00;101233.84;6273520;22;20412;-84
2022/11/27 03:53:57;;;;;;;3.33;1.33;;;;;;;3.56;100.00;101241.63;6221460;22;20043;-83
2022/11/27 03:56:41;;;;;;;0.30;0.30;;;;;;;3.55;100.00;101236.50;6274506;22;20437;-84
2022/11/27 03:59:12;;;;;;;0.70;0.50;;;;;;;3.50;100.00;101228.56;6273781;22;20019;-84
2022/11/27 04:01:38;;;;;;;1.33;1.23;;;;;;;3.57;100.00;101237.72;6246536;22;20012;-84
2022/11/27 04:04:05;;;;;;;0.38;0.38;;;;;;;3.57;100.00;101239.66;6246223;22;20062;-84
2022/11/27 04:06:30;;;;;;;0.95;0.95;;;;;;;3.52;100.00;101229.78;6273900;22;20086;-84
2022/11/27 04:08:56;;;;;;;0.30;0.30;;;;;;;3.53;100.00;101234.13;6273109;22;20043;-84
2022/11/27 04:11:21;;;;;;;1.95;0.63;;;;;;;3.59;100.00;101240.91;6273051;22;20519;-84
2022/11/27 04:13:46;;;;;;;0.00;0.00;;;;;;;3.58;100.00;101239.31;6273574;22;20045;-84
2022/11/27 04:16:12;;;;;;;0.65;0.65;;;;;;;3.55;100.00;101233.75;6273790;22;20069;-83
2022/11/27 04:18:37;;;;;;;0.80;0.47;;;;;;;3.57;100.00;101247.91;6246254;22;20050;-83
2022/11/27 04:21:03;;;;;;;0.13;0.13;;;;;;;3.52;100.00;101234.50;6272856;22;20461;-84
2022/11/27 04:23:28;;;;;;;2.25;1.08;;;;;;;3.48;100.00;101236.38;6273982;22;20396;-84
2022/11/27 04:25:54;;;;;;;0.90;0.82;;;;;;;3.46;100.00;101241.41;6248838;22;20079;-84
2022/11/27 04:28:20;;;;;;;0.88;0.88;;;;;;;3.41;100.00;101231.50;6275691;22;20008;-83
2022/11/27 04:30:50;;;;;;;0.40;0.40;;;;;;;3.42;100.00;101238.59;6275121;22;20000;-84
2022/11/27 04:33:15;;;;;;;2.17;1.65;;;;;;;3.37;100.00;101236.13;6248159;22;20015;-84
2022/11/27 04:35:41;;;;;;;0.55;0.55;;;;;;;3.40;100.00;101243.63;6275633;22;20007;-84
2022/11/27 04:38:06;;;;;;;1.65;1.27;;;;;;;3.41;100.00;101238.94;6275393;22;20058;-84
2022/11/27 04:40:32;;;;;;;0.22;0.22;;;;;;;3.42;100.00;101230.34;6275181;22;20008;-83
2022/11/27 04:42:57;;;;;;;0.40;0.40;;;;;;;3.32;100.00;101214.44;6248137;22;20421;-83
2022/11/27 04:45:23;;;;;;;0.75;0.57;;;;;;;3.30;100.00;101227.75;6275752;22;20073;-84
2022/11/27 04:47:48;;;;;;;0.60;0.60;;;;;;;3.31;100.00;101223.84;6275591;22;20015;-83
2022/11/27 04:50:14;;;;;;;0.20;0.20;;;;;;;3.28;100.00;101221.81;6273869;22;20086;-84
2022/11/27 04:52:39;;;;;;;0.85;0.55;;;;;;;3.13;100.00;101206.22;6274577;22;20445;-83
2022/11/27 04:55:05;;;;;;;0.70;0.60;;;;;;;3.12;100.00;101223.81;6275458;22;20066;-84
2022/11/27 04:57:30;;;;;;;0.10;0.10;;;;;;;3.00;100.00;101223.91;6248505;22;20004;-84
2022/11/27 04:59:56;;;;;;;1.27;1.17;;;;;;;3.03;100.00;101228.72;6274892;22;20030;-83
2022/11/27 05:02:21;;;;;;;1.20;1.10;;;;;;;3.06;100.00;101225.25;6274897;22;20437;-84
2022/11/27 05:04:47;;;;;;;1.33;1.23;;;;;;;3.05;100.00;101227.19;6275052;22;20066;-83
2022/11/27 05:07:12;;;;;;;0.55;0.55;;;;;;;3.04;100.00;101224.81;6275025;22;20012;-83
2022/11/27 05:09:38;;;;;;;0.10;0.10;;;;;;;3.00;100.00;101218.44;6274835;22;20054;-83
2022/11/27 05:12:03;;;;;;;0.20;0.20;;;;;;;2.97;100.00;101214.47;6248427;22;19999;-84
2022/11/27 05:14:29;;;;;;;0.28;0.28;;;;;;;3.03;100.00;101215.00;6274823;22;20089;-84
2022/11/27 05:16:57;;;;;;;0.68;0.68;;;;;;;3.06;100.00;101212.34;6275746;22;20011;-83
2022/11/27 05:19:24;;;;;;;0.45;0.45;;;;;;;3.03;100.00;101215.81;6274500;22;20015;-84
2022/11/27 05:21:51;;;;;;;0.00;0.00;;;;;;;3.03;100.00;101206.78;6274930;22;20065;-84
2022/11/27 05:24:18;;;;;;;0.57;0.57;;;;;;;3.03;100.00;101210.31;6247504;22;20341;-83
2022/11/27 05:26:44;;;;;;;0.10;0.10;;;;;;;3.06;100.00;101206.84;6248308;22;20418;-84
2022/11/27 05:29:10;;;;;;;4.15;0.77;;;;;;;3.03;100.00;101213.06;6274147;22;20043;-84
2022/11/27 05:31:36;;;;;;;0.38;0.38;;;;;;;3.00;100.00;101204.72;6275253;22;20015;-83
2022/11/27 05:34:02;;;;;;;1.85;1.45;;;;;;;3.01;100.00;101189.88;6247790;22;20030;-84
2022/11/27 05:36:28;;;;;;;0.43;0.43;;;;;;;3.01;100.00;101203.59;6247757;22;20325;-84
2022/11/27 05:38:54;;;;;;;0.00;0.00;;;;;;;2.99;100.00;101203.97;6274370;22;20019;-83
2022/11/27 05:41:20;;;;;;;0.77;0.77;;;;;;;3.04;100.00;101208.34;6274993;22;19999;-84
2022/11/27 05:43:45;;;;;;;0.80;0.57;;;;;;;3.08;100.00;101214.72;6248012;22;20086;-83
2022/11/27 05:46:13;;;;;;;0.40;0.40;;;;;;;3.03;100.00;101213.06;6274756;22;20083;-83
2022/11/27 05:48:38;;;;;;;0.82;0.82;;;;;;;2.98;100.00;101198.84;6274874;22;20011;-83
2022/11/27 05:51:04;;;;;;;5.38;3.40;;;;;;;2.98;100.00;101204.31;6274145;22;20012;-83
2022/11/27 05:53:30;;;;;;;0.73;0.73;;;;;;;2.92;100.00;101205.72;6247938;22;20012;-84
2022/11/27 05:56:13;;;;;;;2.35;1.58;;;;;;;2.91;100.00;101215.13;6275025;22;20054;-83
2022/11/27 05:58:40;;;;;;;0.10;0.10;;;;;;;2.88;100.00;101218.56;6221603;22;20016;-84
2022/11/27 06:01:06;;;;;;;0.10;0.10;;;;;;;2.85;100.00;101227.50;6246856;22;20010;-83
2022/11/27 06:03:32;;;;;;;0.38;0.38;;;;;;;2.83;100.00;101225.91;6247344;22;20023;-83
2022/11/27 06:05:57;;;;;;;1.35;1.25;;;;;;;2.80;100.00;101236.78;6274683;22;20012;-84
2022/11/27 06:08:23;;;;;;;0.10;0.10;;;;;;;2.74;100.00;101232.72;6274317;22;20341;-83
2022/11/27 06:10:51;;;;;;;1.67;1.20;;;;;;;2.71;100.00;101230.72;6274138;22;20016;-84
2022/11/27 06:13:16;;;;;;;0.50;0.50;;;;;;;2.68;100.00;101237.69;6221834;22;20149;-83
2022/11/27 06:15:42;;;;;;;0.47;0.47;;;;;;;2.71;100.00;101233.44;6274823;22;20039;-84
2022/11/27 06:18:09;;;;;;;0.47;0.47;;;;;;;2.70;100.00;101240.88;6272373;22;20031;-84
2022/11/27 06:20:34;;;;;;;0.68;0.40;;;;;;;2.75;100.00;101235.09;6245160;22;20008;-84
2022/11/27 06:23:00;;;;;;;1.08;0.82;;;;;;;2.76;100.00;101239.44;6245299;22;20491;-84
2022/11/27 06:25:25;;;;;;;0.25;0.25;;;;;;;2.73;100.00;101237.41;6270769;22;20083;-84
2022/11/27 06:27:51;;;;;;;0.10;0.10;;;;;;;2.74;100.00;101236.28;6273313;22;20012;-83
2022/11/27 06:30:17;;;;;;;0.00;0.00;;;;;;;2.76;100.00;101239.44;6246503;22;20038;-84
2022/11/27 06:32:42;;;;;;;0.10;0.10;;;;;;;2.85;100.00;101233.78;6272652;22;20031;-84
2022/11/27 06:35:08;;;;;;;1.98;0.90;;;;;;;2.95;100.00;101232.44;6273067;22;20114;-84
2022/11/27 06:37:33;;;;;;;0.40;0.40;;;;;;;3.04;100.00;101235.75;6273718;22;20473;-83
2022/11/27 06:39:59;;;;;;;0.52;0.50;;;;;;;3.05;100.00;101224.44;6246853;22;20015;-83
2022/11/27 06:42:28;;;;;;;0.52;0.52;;;;;;;3.07;100.00;101218.63;6273629;22;20011;-84
2022/11/27 06:44:54;;;;;;;5.20;0.93;;;;;;;3.08;100.00;101225.66;6274003;22;20384;-83
2022/11/27 06:47:19;;;;;;;0.75;0.75;;;;;;;3.14;100.00;101229.75;6273803;22;20019;-83
2022/11/27 06:49:44;;;;;;;2.85;1.42;;;;;;;3.18;100.00;101236.91;6273160;22;20015;-82
2022/11/27 06:52:10;;;;;;;1.55;0.95;;;;;;;3.22;100.00;101229.53;6272766;22;20004;-83
2022/11/27 06:54:35;;;;;;;0.80;0.70;;;;;;;3.20;100.00;101222.81;6273938;22;20345;-83
2022/11/27 06:57:01;;;;;;;1.20;0.40;;;;;;;3.24;100.00;101223.69;6273601;22;20469;-83
2022/11/27 06:59:26;;;;;;;3.30;1.35;;;;;;;3.35;100.00;101234.91;6245657;22;20018;-83
2022/11/27 07:01:52;;;;;;;0.38;0.38;;;;;;;3.38;100.00;101240.47;6272504;22;20035;-82
2022/11/27 07:04:17;;;;;;;0.65;0.52;;;;;;;3.45;100.00;101240.59;6273413;22;20016;-82
2022/11/27 07:06:43;;;;;;;0.85;0.63;;;;;;;3.53;100.00;101236.06;6272762;22;20065;-82
2022/11/27 07:09:09;;;;;;;0.32;0.32;;;;;;;3.52;100.00;101240.75;6244794;22;20091;-82
2022/11/27 07:11:34;;;;;;;0.22;0.22;;;;;;;3.55;100.00;101242.78;6244923;22;20016;-82
2022/11/27 07:14:03;;;;;;;1.02;0.93;;;;;;;3.61;100.00;101232.31;6244792;22;20006;-83
2022/11/27 07:16:30;;;;;;;0.20;0.20;;;;;;;3.67;100.00;101242.66;6273049;22;20322;-83
2022/11/27 07:19:05;;;;;;;0.00;0.00;;;;;;;3.76;100.00;101247.94;6243386;22;20020;-83
2022/11/27 07:21:30;;;;;;;0.32;0.32;;;;;;;3.79;100.00;101254.63;6220126;22;20020;-82
2022/11/27 07:23:56;;;;;;;1.80;1.05;;;;;;;3.83;100.00;101241.78;6272198;22;20073;-82
2022/11/27 07:26:24;;;;;;;0.52;0.52;;;;;;;3.81;100.00;101246.81;6272777;22;20011;-82
2022/11/27 07:28:50;;;;;;;0.47;0.47;;;;;;;3.93;100.00;101249.41;6272410;22;20014;-82
2022/11/27 07:31:19;;;;;;;0.38;0.38;;;;;;;3.98;100.00;101252.66;6245276;22;20011;-82
2022/11/27 07:33:44;;;;;;;0.20;0.20;;;;;;;4.09;100.00;101250.09;6271975;22;20039;-82
2022/11/27 07:36:14;;;;;;;0.00;0.00;;;;;;;4.15;100.00;101241.22;6264791;22;20020;-83
2022/11/27 07:38:40;;;;;;;4.15;1.33;;;;;;;4.21;100.00;101249.94;6269357;22;20497;-83
2022/11/27 07:41:06;;;;;;;0.10;0.10;;;;;;;4.19;100.00;101246.78;6266483;22;20047;-83
2022/11/27 07:43:32;;;;;;;0.70;0.70;;;;;;;4.23;100.00;101247.63;6268151;22;20019;-82
2022/11/27 07:46:02;;;;;;;0.52;0.52;;;;;;;4.36;100.00;101235.31;6241806;22;20035;-83
2022/11/27 07:48:28;;;;;;;2.30;1.67;;;;;;;4.47;100.00;101252.78;6269039;22;20016;-85
2022/11/27 07:50:53;;;;;;;0.35;0.25;;;;;;;4.41;100.00;101254.22;6268186;22;20047;-83
2022/11/27 07:53:19;;;;;;;2.13;1.50;;;;;;;4.41;100.00;101261.69;6266502;22;20015;-83
2022/11/27 07:55:44;;;;;;;0.45;0.45;;;;;;;4.53;100.00;101262.28;6267758;22;20027;-83
2022/11/27 07:58:10;;;;;;;0.20;0.20;;;;;;;4.61;100.00;101266.75;6269671;22;20007;-83
2022/11/27 08:00:36;;;;;;;0.75;0.75;;;;;;;4.60;100.00;101256.94;6272122;22;20018;-83
2022/11/27 08:03:02;;;;;;;0.45;0.45;;;;;;;4.72;100.00;101257.91;6273468;22;20054;-79
2022/11/27 08:05:27;;;;;;;5.05;2.35;;;;;;;4.69;100.00;101260.22;6270811;22;20441;-78
2022/11/27 08:07:53;;;;;;;1.02;1.00;;;;;;;4.82;100.00;101257.28;6271500;22;20024;-78
2022/11/27 08:10:19;;;;;;;0.50;0.50;;;;;;;4.83;100.00;101247.88;6272540;22;20004;-79
2022/11/27 08:12:45;;;;;;;7.38;1.20;;;;;;;4.95;100.00;101250.41;6243734;22;20019;-79
2022/11/27 08:15:11;;;;;;;1.17;0.70;;;;;;;5.04;100.00;101248.19;6271790;22;20058;-78
2022/11/27 08:17:36;;;;;;;0.00;0.00;;;;;;;5.01;100.00;101248.94;6271172;22;20015;-78
2022/11/27 08:20:03;;;;;;;0.95;0.88;;;;;;;5.05;100.00;101255.28;6270901;22;20090;-78
2022/11/27 08:22:28;;;;;;;0.93;0.77;;;;;;;5.05;100.00;101252.53;6271638;22;20408;-78
2022/11/27 08:24:54;;;;;;;2.88;2.63;;;;;;;5.04;100.00;101256.44;6269375;22;20039;-78
2022/11/27 08:27:19;;;;;;;0.30;0.30;;;;;;;5.12;100.00;101252.66;6271893;22;20323;-78
2022/11/27 08:29:44;;;;;;;0.55;0.45;;;;;;;5.20;100.00;101251.59;6244287;22;20012;-78
2022/11/27 08:32:10;;;;;;;0.20;0.20;;;;;;;5.32;100.00;101248.63;6272513;22;20016;-80
2022/11/27 08:34:36;;;;;;;0.30;0.30;;;;;;;5.28;100.00;101242.28;6272583;22;20008;-78
2022/11/27 08:37:03;;;;;;;0.32;0.32;;;;;;;5.45;100.00;101251.94;6221456;22;20445;-79
2022/11/27 08:39:29;;;;;;;0.00;0.00;;;;;;;5.50;100.00;101257.13;6273153;22;20028;-79
2022/11/27 08:41:54;;;;;;;0.47;0.47;;;;;;;5.59;100.00;101247.41;6273040;22;20016;-79
2022/11/27 08:44:20;;;;;;;0.20;0.20;;;;;;;5.69;100.00;101256.16;6272799;22;20018;-79
2022/11/27 08:46:45;;;;;;;0.57;0.57;;;;;;;5.66;100.00;101254.19;6273690;22;20038;-79
2022/11/27 08:49:11;;;;;;;2.05;0.95;;;;;;;5.75;100.00;101257.41;6245277;22;20595;-80
2022/11/27 08:51:36;;;;;;;0.75;0.75;;;;;;;5.49;100.00;101239.81;6245943;22;20018;-79
2022/11/27 08:54:02;;;;;;;0.77;0.77;;;;;;;5.64;100.00;101255.34;6245481;22;20464;-79
2022/11/27 08:56:28;;;;;;;0.35;0.35;;;;;;;5.70;100.00;101264.06;6272681;22;20046;-79
2022/11/27 08:58:54;;;;;;;1.90;1.08;;;;;;;5.69;100.00;101261.69;6244317;22;20046;-79
2022/11/27 09:01:24;;;;;;;0.45;0.40;;;;;;;5.60;100.00;101235.22;6246270;22;20063;-79
2022/11/27 09:03:51;;;;;;;0.20;0.20;;;;;;;5.73;100.00;101246.00;6270401;22;20016;-79
2022/11/27 09:06:20;;;;;;;1.08;1.05;;;;;;;5.81;100.00;101242.97;6272349;22;20068;-79
2022/11/27 09:08:45;;;;;;;0.30;0.30;;;;;;;5.79;100.00;101242.53;6270356;22;20338;-79
2022/11/27 09:11:12;;;;;;;0.00;0.00;;;;;;;5.85;100.00;101248.50;6269299;22;20019;-79
2022/11/27 09:13:39;;;;;;;1.20;0.60;;;;;;;5.93;100.00;101255.72;6269589;22;20015;-79
2022/11/27 09:16:07;;;;;;;2.35;0.85;;;;;;;5.95;100.00;101247.84;6270427;22;20023;-79
2022/11/27 09:18:33;;;;;;;1.35;1.30;;;;;;;6.08;100.00;101252.72;6242421;22;20350;-78
2022/11/27 09:21:01;;;;;;;3.00;2.03;;;;;;;6.10;100.00;101255.13;6271612;22;20016;-78
2022/11/27 09:23:27;;;;;;;0.30;0.30;;;;;;;6.14;100.00;101250.44;6269358;22;20016;-78
2022/11/27 09:25:53;;;;;;;2.92;2.50;;;;;;;6.32;100.00;101247.84;6270526;22;20019;-78
2022/11/27 09:28:19;;;;;;;2.28;1.92;;;;;;;6.31;100.00;101249.81;6244542;22;20053;-78
2022/11/27 09:30:44;;;;;;;0.38;0.38;;;;;;;6.46;100.00;101243.28;6271336;22;20104;-78
2022/11/27 09:33:10;;;;;;;2.53;0.75;;;;;;;6.57;100.00;101252.44;6270469;22;20039;-78
2022/11/27 09:35:36;;;;;;;0.50;0.50;;;;;;;6.59;100.00;101243.78;6244003;22;20295;-78
2022/11/27 09:38:02;;;;;;;1.05;1.05;;;;;;;6.61;100.00;101246.16;6215645;22;20094;-78
2022/11/27 09:40:28;;;;;;;0.80;0.80;;;;;;;6.75;100.00;101236.06;6270525;22;20038;-78
2022/11/27 09:42:57;;;;;;;0.90;0.88;;;;;;;6.93;100.00;101219.63;6269978;22;20548;-78
2022/11/27 09:45:24;;;;;;;1.38;1.30;;;;;;;7.22;100.00;101237.16;6239292;22;20472;-78
2022/11/27 09:48:03;;;;;;;1.00;0.93;;;;;;;7.44;100.00;101231.34;6240971;22;20035;-78
2022/11/27 09:50:34;;;;;;;0.63;0.63;;;;;;;7.55;100.00;101220.38;6218169;22;20007;-79
2022/11/27 09:53:15;;;;;;;0.80;0.80;;;;;;;7.77;100.00;101222.03;6243224;22;20026;-79
2022/11/27 09:55:47;;;;;;;0.35;0.35;;;;;;;8.05;100.00;101229.59;6242829;22;20014;-79
2022/11/27 09:58:15;;;;;;;0.70;0.70;;;;;;;8.22;100.00;101225.31;6269292;22;20026;-78
2022/11/27 10:00:43;;;;;;;0.75;0.75;;;;;;;8.28;100.00;101224.56;6269354;22;20014;-79
2022/11/27 10:03:24;;;;;;;1.52;1.15;;;;;;;8.41;100.00;101213.94;6267413;22;20061;-79
2022/11/27 10:06:13;;;;;;;1.75;1.38;;;;;;;8.48;100.00;101213.13;6241503;22;20022;-79
2022/11/27 10:08:56;;;;;;;0.73;0.52;;;;;;;8.62;100.00;101213.91;6270210;22;20051;-79
2022/11/27 10:11:30;;;;;;;0.30;0.30;;;;;;;8.51;100.00;101215.09;6244290;22;20046;-78
2022/11/27 10:14:17;;;;;;;0.93;0.85;;;;;;;8.50;100.00;101213.53;6244370;22;20024;-79
2022/11/27 10:16:47;;;;;;;1.27;0.75;;;;;;;8.24;100.00;101209.94;6245542;22;20012;-78
2022/11/27 10:19:48;;;;;;;0.52;0.52;;;;;;;8.47;100.00;101206.81;6270742;22;20019;-78
2022/11/27 10:22:18;;;;;;;0.55;0.55;;;;;;;8.67;100.00;101198.91;6244185;22;20016;-78
2022/11/27 10:25:14;;;;;;;0.40;0.40;;;;;;;8.79;100.00;101191.00;6244359;22;20096;-78
2022/11/27 10:27:48;;;;;;;0.93;0.70;;;;;;;8.76;100.00;101186.25;6219735;22;20012;-78
2022/11/27 10:30:16;;;;;;;1.65;1.30;;;;;;;8.72;100.00;101184.69;6243445;22;20062;-78
2022/11/27 10:32:41;;;;;;;0.65;0.63;;;;;;;8.94;100.00;101179.94;6243005;22;20015;-78
2022/11/27 10:35:17;;;;;;;0.80;0.68;;;;;;;8.89;100.00;101189.41;6271903;22;20024;-78
2022/11/27 10:37:58;;;;;;;5.53;0.88;;;;;;;9.08;100.00;101183.44;6245025;22;20012;-78
2022/11/27 10:40:28;;;;;;;0.85;0.85;;;;;;;9.10;100.00;101180.28;6244636;22;20020;-78
2022/11/27 10:43:15;;;;;;;1.90;0.82;;;;;;;9.25;100.00;101179.84;6244795;22;20012;-78
2022/11/27 10:45:52;;;;;;;0.88;0.65;;;;;;;9.43;100.00;101177.00;6244212;22;20421;-78
2022/11/27 10:48:18;;;;;;;0.45;0.40;;;;;;;9.42;100.00;101169.09;6271048;22;20027;-79
2022/11/27 10:50:44;;;;;;;5.55;1.50;;;;;;;9.52;100.00;101159.94;6270526;22;20039;-78
2022/11/27 10:53:34;;;;;;;2.28;1.55;;;;;;;9.34;100.00;101169.09;6269761;22;20015;-78
2022/11/27 10:56:13;;;;;;;1.30;0.77;;;;;;;9.06;100.00;101166.44;6243166;22;20016;-78
2022/11/27 10:58:56;;;;;;;2.15;1.63;;;;;;;8.86;100.00;101151.44;6268247;22;20438;-78
2022/11/27 11:01:24;;;;;;;1.40;0.88;;;;;;;8.78;100.00;101158.97;6270579;22;20031;-79
2022/11/27 11:03:50;;;;;;;1.15;0.82;;;;;;;8.61;100.00;101145.19;6269018;22;20015;-78
2022/11/27 11:06:22;;;;;;;0.98;0.95;;;;;;;8.64;100.00;101155.44;6216763;22;20394;-78
2022/11/27 11:08:58;;;;;;;0.85;0.85;;;;;;;8.65;100.00;101140.44;6243309;22;20437;-78
2022/11/27 11:11:25;;;;;;;3.20;1.65;;;;;;;8.59;100.00;101147.53;6243947;22;20047;-79
2022/11/27 11:13:54;;;;;;;1.75;1.60;;;;;;;8.53;100.00;101143.63;6244298;22;20011;-78
2022/11/27 11:16:26;;;;;;;0.47;0.47;;;;;;;8.47;100.00;101136.88;6270217;22;20398;-78
2022/11/27 11:18:53;;;;;;;1.10;1.00;;;;;;;8.40;100.00;101134.94;6269478;22;20113;-80
2022/11/27 11:21:18;;;;;;;0.75;0.75;;;;;;;8.47;100.00;101126.63;6271053;22;20020;-78
2022/11/27 11:24:01;;;;;;;0.30;0.30;;;;;;;8.51;100.00;101127.41;6271258;22;20683;-79
2022/11/27 11:26:46;;;;;;;0.55;0.55;;;;;;;8.59;100.00;101122.66;6219492;22;20437;-79
2022/11/27 11:29:32;;;;;;;0.65;0.65;;;;;;;8.70;100.00;101121.44;6271173;22;20011;-79
2022/11/27 11:32:08;;;;;;;0.47;0.47;;;;;;;8.70;100.00;101115.13;6214110;22;20031;-79
2022/11/27 11:34:34;;;;;;;1.25;0.35;;;;;;;8.79;100.00;101098.91;6218644;22;20072;-81